sensor_id;sensor_type;location;lat;lon;timestamp;P1;durP1;ratioP1;P2;durP2;ratioP2
26864;SDS011;40618;51.166;10.322;2022-11-20T00:01:14;22.73;;;10.43;;
26864;SDS011;40618;51.166;10.322;2022-11-20T00:03:44;22.75;;;10.05;;
26864;SDS011;40618;51.166;10.322;2022-11-20T00:06:11;20.95;;;9.95;;
26864;SDS011;40618;51.166;10.322;2022-11-20T00:08:40;16.98;;;8.63;;
26864;SDS011;40618;51.166;10.322;2022-11-20T00:11:08;17.92;;;9.20;;
26864;SDS011;40618;51.166;10.322;2022-11-20T00:13:46;23.65;;;10.43;;
26864;SDS011;40618;51.166;10.322;2022-11-20T00:16:17;20.42;;;10.60;;
26864;SDS011;40618;51.166;10.322;2022-11-20T00:21:13;19.27;;;9.85;;
26864;SDS011;40618;51.166;10.322;2022-11-20T00:23:47;17.40;;;9.80;;
26864;SDS011;40618;51.166;10.322;2022-11-20T00:26:15;18.70;;;9.80;;
26864;SDS011;40618;51.166;10.322;2022-11-20T00:28:43;20.80;;;9.70;;
26864;SDS011;40618;51.166;10.322;2022-11-20T00:31:14;20.98;;;10.15;;
26864;SDS011;40618;51.166;10.322;2022-11-20T00:33:41;22.33;;;10.55;;
26864;SDS011;40618;51.166;10.322;2022-11-20T00:36:16;22.55;;;10.45;;
26864;SDS011;40618;51.166;10.322;2022-11-20T00:38:50;25.15;;;11.45;;
26864;SDS011;40618;51.166;10.322;2022-11-20T00:41:20;23.02;;;10.60;;
26864;SDS011;40618;51.166;10.322;2022-11-20T00:43:46;22.45;;;10.63;;
26864;SDS011;40618;51.166;10.322;2022-11-20T00:46:17;22.15;;;10.00;;
26864;SDS011;40618;51.166;10.322;2022-11-20T00:48:45;18.15;;;10.07;;
26864;SDS011;40618;51.166;10.322;2022-11-20T00:51:11;19.05;;;10.30;;
26864;SDS011;40618;51.166;10.322;2022-11-20T00:53:40;18.38;;;9.85;;
26864;SDS011;40618;51.166;10.322;2022-11-20T00:56:06;20.73;;;10.27;;
26864;SDS011;40618;51.166;10.322;2022-11-20T00:58:36;19.60;;;10.35;;
26864;SDS011;40618;51.166;10.322;2022-11-20T01:03:38;18.20;;;9.90;;
26864;SDS011;40618;51.166;10.322;2022-11-20T01:08:41;18.73;;;9.55;;
26864;SDS011;40618;51.166;10.322;2022-11-20T01:11:09;21.05;;;10.50;;
26864;SDS011;40618;51.166;10.322;2022-11-20T01:13:44;18.92;;;9.82;;
26864;SDS011;40618;51.166;10.322;2022-11-20T01:16:13;15.52;;;8.73;;
26864;SDS011;40618;51.166;10.322;2022-11-20T01:18:44;17.40;;;8.80;;
26864;SDS011;40618;51.166;10.322;2022-11-20T01:21:13;19.30;;;9.55;;
26864;SDS011;40618;51.166;10.322;2022-11-20T01:23:48;17.67;;;8.80;;
26864;SDS011;40618;51.166;10.322;2022-11-20T01:26:17;18.02;;;9.48;;
26864;SDS011;40618;51.166;10.322;2022-11-20T01:28:45;18.75;;;9.10;;
26864;SDS011;40618;51.166;10.322;2022-11-20T01:33:47;19.10;;;9.95;;
26864;SDS011;40618;51.166;10.322;2022-11-20T01:36:15;18.27;;;9.00;;
26864;SDS011;40618;51.166;10.322;2022-11-20T01:38:42;18.95;;;8.80;;
26864;SDS011;40618;51.166;10.322;2022-11-20T01:41:08;17.23;;;8.50;;
26864;SDS011;40618;51.166;10.322;2022-11-20T01:43:57;19.13;;;9.35;;
26864;SDS011;40618;51.166;10.322;2022-11-20T01:46:24;20.85;;;10.57;;
26864;SDS011;40618;51.166;10.322;2022-11-20T01:49:02;21.27;;;10.45;;
26864;SDS011;40618;51.166;10.322;2022-11-20T01:51:41;17.95;;;8.50;;
26864;SDS011;40618;51.166;10.322;2022-11-20T01:54:15;18.83;;;9.40;;
26864;SDS011;40618;51.166;10.322;2022-11-20T01:56:47;20.90;;;8.93;;
26864;SDS011;40618;51.166;10.322;2022-11-20T01:59:19;16.20;;;9.02;;
26864;SDS011;40618;51.166;10.322;2022-11-20T02:01:49;20.30;;;9.55;;
26864;SDS011;40618;51.166;10.322;2022-11-20T02:04:14;17.38;;;8.77;;
26864;SDS011;40618;51.166;10.322;2022-11-20T02:09:15;18.10;;;9.13;;
26864;SDS011;40618;51.166;10.322;2022-11-20T02:11:42;17.67;;;8.80;;
26864;SDS011;40618;51.166;10.322;2022-11-20T02:14:08;19.92;;;9.75;;
26864;SDS011;40618;51.166;10.322;2022-11-20T02:16:36;19.08;;;9.65;;
26864;SDS011;40618;51.166;10.322;2022-11-20T02:19:09;19.27;;;9.77;;
26864;SDS011;40618;51.166;10.322;2022-11-20T02:24:26;18.23;;;8.88;;
26864;SDS011;40618;51.166;10.322;2022-11-20T02:26:53;17.70;;;9.38;;
26864;SDS011;40618;51.166;10.322;2022-11-20T02:29:31;18.15;;;8.85;;
26864;SDS011;40618;51.166;10.322;2022-11-20T02:32:04;14.80;;;7.00;;
26864;SDS011;40618;51.166;10.322;2022-11-20T02:34:30;18.20;;;9.48;;
26864;SDS011;40618;51.166;10.322;2022-11-20T02:36:57;17.58;;;9.02;;
26864;SDS011;40618;51.166;10.322;2022-11-20T02:39:25;17.02;;;8.77;;
26864;SDS011;40618;51.166;10.322;2022-11-20T02:41:53;19.70;;;9.98;;
26864;SDS011;40618;51.166;10.322;2022-11-20T02:44:21;22.20;;;10.63;;
26864;SDS011;40618;51.166;10.322;2022-11-20T02:46:46;20.73;;;9.55;;
26864;SDS011;40618;51.166;10.322;2022-11-20T02:49:12;20.27;;;9.38;;
26864;SDS011;40618;51.166;10.322;2022-11-20T02:51:37;20.50;;;9.38;;
26864;SDS011;40618;51.166;10.322;2022-11-20T02:54:03;18.98;;;9.60;;
26864;SDS011;40618;51.166;10.322;2022-11-20T02:56:29;19.10;;;9.70;;
26864;SDS011;40618;51.166;10.322;2022-11-20T02:58:55;25.77;;;11.45;;
26864;SDS011;40618;51.166;10.322;2022-11-20T03:01:21;21.80;;;10.98;;
26864;SDS011;40618;51.166;10.322;2022-11-20T03:03:47;25.00;;;11.05;;
26864;SDS011;40618;51.166;10.322;2022-11-20T03:06:13;21.77;;;10.18;;
26864;SDS011;40618;51.166;10.322;2022-11-20T03:08:41;23.40;;;11.18;;
26864;SDS011;40618;51.166;10.322;2022-11-20T03:11:07;24.50;;;10.73;;
26864;SDS011;40618;51.166;10.322;2022-11-20T03:13:34;26.20;;;10.93;;
26864;SDS011;40618;51.166;10.322;2022-11-20T03:16:13;21.90;;;11.43;;
26864;SDS011;40618;51.166;10.322;2022-11-20T03:18:45;26.75;;;12.15;;
26864;SDS011;40618;51.166;10.322;2022-11-20T03:21:11;28.90;;;12.93;;
26864;SDS011;40618;51.166;10.322;2022-11-20T03:23:39;27.63;;;11.73;;
26864;SDS011;40618;51.166;10.322;2022-11-20T03:28:48;25.15;;;11.52;;
26864;SDS011;40618;51.166;10.322;2022-11-20T03:31:29;29.65;;;12.15;;
26864;SDS011;40618;51.166;10.322;2022-11-20T03:34:02;27.23;;;12.25;;
26864;SDS011;40618;51.166;10.322;2022-11-20T03:36:29;29.23;;;12.55;;
26864;SDS011;40618;51.166;10.322;2022-11-20T03:38:55;30.58;;;11.55;;
26864;SDS011;40618;51.166;10.322;2022-11-20T03:41:23;57.55;;;11.73;;
26864;SDS011;40618;51.166;10.322;2022-11-20T03:43:54;73.50;;;12.40;;
26864;SDS011;40618;51.166;10.322;2022-11-20T03:46:26;36.72;;;10.52;;
26864;SDS011;40618;51.166;10.322;2022-11-20T03:48:52;26.50;;;11.60;;
26864;SDS011;40618;51.166;10.322;2022-11-20T03:51:22;30.40;;;11.15;;
26864;SDS011;40618;51.166;10.322;2022-11-20T03:53:51;50.47;;;10.45;;
26864;SDS011;40618;51.166;10.322;2022-11-20T03:56:22;36.67;;;9.60;;
26864;SDS011;40618;51.166;10.322;2022-11-20T03:58:53;31.13;;;10.48;;
26864;SDS011;40618;51.166;10.322;2022-11-20T04:01:20;21.27;;;9.88;;
26864;SDS011;40618;51.166;10.322;2022-11-20T04:03:57;29.30;;;11.20;;
26864;SDS011;40618;51.166;10.322;2022-11-20T04:06:30;24.40;;;10.57;;
26864;SDS011;40618;51.166;10.322;2022-11-20T04:09:00;22.60;;;10.35;;
26864;SDS011;40618;51.166;10.322;2022-11-20T04:11:27;25.85;;;10.60;;
26864;SDS011;40618;51.166;10.322;2022-11-20T04:13:56;32.33;;;11.68;;
26864;SDS011;40618;51.166;10.322;2022-11-20T04:16:25;34.55;;;13.93;;
26864;SDS011;40618;51.166;10.322;2022-11-20T04:18:55;36.03;;;11.65;;
26864;SDS011;40618;51.166;10.322;2022-11-20T04:21:23;27.98;;;11.70;;
26864;SDS011;40618;51.166;10.322;2022-11-20T04:23:50;30.38;;;12.32;;
26864;SDS011;40618;51.166;10.322;2022-11-20T04:26:20;30.05;;;12.18;;
26864;SDS011;40618;51.166;10.322;2022-11-20T04:28:48;31.55;;;12.35;;
26864;SDS011;40618;51.166;10.322;2022-11-20T04:31:15;33.70;;;13.95;;
26864;SDS011;40618;51.166;10.322;2022-11-20T04:33:44;37.15;;;13.63;;
26864;SDS011;40618;51.166;10.322;2022-11-20T04:36:11;32.47;;;12.82;;
26864;SDS011;40618;51.166;10.322;2022-11-20T04:38:40;29.58;;;12.82;;
26864;SDS011;40618;51.166;10.322;2022-11-20T04:41:07;28.35;;;13.18;;
26864;SDS011;40618;51.166;10.322;2022-11-20T04:43:39;31.20;;;12.93;;
26864;SDS011;40618;51.166;10.322;2022-11-20T04:46:04;28.05;;;12.27;;
26864;SDS011;40618;51.166;10.322;2022-11-20T04:48:30;30.10;;;12.77;;
26864;SDS011;40618;51.166;10.322;2022-11-20T04:50:56;30.30;;;12.77;;
26864;SDS011;40618;51.166;10.322;2022-11-20T04:53:22;27.65;;;12.82;;
26864;SDS011;40618;51.166;10.322;2022-11-20T04:55:49;26.30;;;12.48;;
26864;SDS011;40618;51.166;10.322;2022-11-20T04:58:16;29.73;;;13.00;;
26864;SDS011;40618;51.166;10.322;2022-11-20T05:00:42;29.77;;;13.48;;
26864;SDS011;40618;51.166;10.322;2022-11-20T05:03:07;30.42;;;14.30;;
26864;SDS011;40618;51.166;10.322;2022-11-20T05:05:33;31.98;;;14.15;;
26864;SDS011;40618;51.166;10.322;2022-11-20T05:08:00;30.85;;;13.73;;
26864;SDS011;40618;51.166;10.322;2022-11-20T05:10:26;30.83;;;14.05;;
26864;SDS011;40618;51.166;10.322;2022-11-20T05:12:52;38.40;;;14.95;;
26864;SDS011;40618;51.166;10.322;2022-11-20T05:15:17;28.92;;;13.07;;
26864;SDS011;40618;51.166;10.322;2022-11-20T05:17:47;31.30;;;13.65;;
26864;SDS011;40618;51.166;10.322;2022-11-20T05:20:14;32.47;;;13.55;;
26864;SDS011;40618;51.166;10.322;2022-11-20T05:22:40;33.95;;;14.70;;
26864;SDS011;40618;51.166;10.322;2022-11-20T05:25:06;34.42;;;14.48;;
26864;SDS011;40618;51.166;10.322;2022-11-20T05:27:32;32.30;;;14.10;;
26864;SDS011;40618;51.166;10.322;2022-11-20T05:29:57;36.45;;;14.85;;
26864;SDS011;40618;51.166;10.322;2022-11-20T05:32:23;37.95;;;15.07;;
26864;SDS011;40618;51.166;10.322;2022-11-20T05:34:50;33.58;;;14.02;;
26864;SDS011;40618;51.166;10.322;2022-11-20T05:37:18;33.45;;;14.57;;
26864;SDS011;40618;51.166;10.322;2022-11-20T05:39:44;34.17;;;14.30;;
26864;SDS011;40618;51.166;10.322;2022-11-20T05:42:09;29.83;;;13.18;;
26864;SDS011;40618;51.166;10.322;2022-11-20T05:44:54;35.17;;;14.82;;
26864;SDS011;40618;51.166;10.322;2022-11-20T05:47:19;32.72;;;14.50;;
26864;SDS011;40618;51.166;10.322;2022-11-20T05:49:45;32.83;;;14.70;;
26864;SDS011;40618;51.166;10.322;2022-11-20T05:52:10;26.13;;;12.35;;
26864;SDS011;40618;51.166;10.322;2022-11-20T05:54:36;28.27;;;13.27;;
26864;SDS011;40618;51.166;10.322;2022-11-20T05:57:02;24.27;;;11.40;;
26864;SDS011;40618;51.166;10.322;2022-11-20T05:59:27;33.00;;;12.65;;
26864;SDS011;40618;51.166;10.322;2022-11-20T06:01:53;24.30;;;11.57;;
26864;SDS011;40618;51.166;10.322;2022-11-20T06:04:18;31.05;;;13.20;;
26864;SDS011;40618;51.166;10.322;2022-11-20T06:06:44;34.08;;;13.63;;
26864;SDS011;40618;51.166;10.322;2022-11-20T06:09:10;28.10;;;12.55;;
26864;SDS011;40618;51.166;10.322;2022-11-20T06:11:35;28.42;;;12.00;;
26864;SDS011;40618;51.166;10.322;2022-11-20T06:14:01;33.30;;;12.30;;
26864;SDS011;40618;51.166;10.322;2022-11-20T06:16:26;38.55;;;15.40;;
26864;SDS011;40618;51.166;10.322;2022-11-20T06:18:52;36.15;;;15.18;;
26864;SDS011;40618;51.166;10.322;2022-11-20T06:21:18;29.48;;;13.48;;
26864;SDS011;40618;51.166;10.322;2022-11-20T06:23:46;28.75;;;13.20;;
26864;SDS011;40618;51.166;10.322;2022-11-20T06:26:14;30.70;;;13.45;;
26864;SDS011;40618;51.166;10.322;2022-11-20T06:28:42;31.10;;;11.90;;
26864;SDS011;40618;51.166;10.322;2022-11-20T06:31:10;25.52;;;11.65;;
26864;SDS011;40618;51.166;10.322;2022-11-20T06:33:38;19.17;;;9.15;;
26864;SDS011;40618;51.166;10.322;2022-11-20T06:36:04;20.45;;;9.05;;
26864;SDS011;40618;51.166;10.322;2022-11-20T06:38:30;22.15;;;9.82;;
26864;SDS011;40618;51.166;10.322;2022-11-20T06:40:56;27.25;;;11.05;;
26864;SDS011;40618;51.166;10.322;2022-11-20T06:43:22;26.75;;;12.25;;
26864;SDS011;40618;51.166;10.322;2022-11-20T06:45:53;20.85;;;10.00;;
26864;SDS011;40618;51.166;10.322;2022-11-20T06:48:21;12.80;;;6.85;;
26864;SDS011;40618;51.166;10.322;2022-11-20T06:50:48;13.95;;;7.00;;
26864;SDS011;40618;51.166;10.322;2022-11-20T06:53:14;11.32;;;5.28;;
26864;SDS011;40618;51.166;10.322;2022-11-20T06:55:43;11.07;;;5.30;;
26864;SDS011;40618;51.166;10.322;2022-11-20T06:58:11;10.55;;;5.07;;
26864;SDS011;40618;51.166;10.322;2022-11-20T07:00:37;8.98;;;4.68;;
26864;SDS011;40618;51.166;10.322;2022-11-20T07:03:03;10.18;;;4.35;;
26864;SDS011;40618;51.166;10.322;2022-11-20T07:05:30;8.77;;;4.70;;
26864;SDS011;40618;51.166;10.322;2022-11-20T07:07:56;9.68;;;5.35;;
26864;SDS011;40618;51.166;10.322;2022-11-20T07:10:22;8.60;;;5.05;;
26864;SDS011;40618;51.166;10.322;2022-11-20T07:12:49;8.65;;;4.78;;
26864;SDS011;40618;51.166;10.322;2022-11-20T07:15:19;8.88;;;5.22;;
26864;SDS011;40618;51.166;10.322;2022-11-20T07:17:47;8.23;;;4.25;;
26864;SDS011;40618;51.166;10.322;2022-11-20T07:20:13;6.68;;;3.97;;
26864;SDS011;40618;51.166;10.322;2022-11-20T07:22:40;10.30;;;5.82;;
26864;SDS011;40618;51.166;10.322;2022-11-20T07:25:06;7.80;;;4.47;;
26864;SDS011;40618;51.166;10.322;2022-11-20T07:27:33;10.98;;;4.60;;
26864;SDS011;40618;51.166;10.322;2022-11-20T07:29:59;8.85;;;4.38;;
26864;SDS011;40618;51.166;10.322;2022-11-20T07:32:25;8.68;;;4.40;;
26864;SDS011;40618;51.166;10.322;2022-11-20T07:34:51;11.52;;;4.95;;
26864;SDS011;40618;51.166;10.322;2022-11-20T07:37:16;10.35;;;4.93;;
26864;SDS011;40618;51.166;10.322;2022-11-20T07:39:42;10.80;;;5.10;;
26864;SDS011;40618;51.166;10.322;2022-11-20T07:42:08;12.25;;;5.93;;
26864;SDS011;40618;51.166;10.322;2022-11-20T07:44:34;11.38;;;5.93;;
26864;SDS011;40618;51.166;10.322;2022-11-20T07:47:00;10.15;;;5.80;;
26864;SDS011;40618;51.166;10.322;2022-11-20T07:49:26;12.70;;;6.68;;
26864;SDS011;40618;51.166;10.322;2022-11-20T07:51:52;18.17;;;7.00;;
26864;SDS011;40618;51.166;10.322;2022-11-20T07:54:21;18.58;;;8.68;;
26864;SDS011;40618;51.166;10.322;2022-11-20T07:56:48;18.45;;;8.85;;
26864;SDS011;40618;51.166;10.322;2022-11-20T07:59:14;21.85;;;9.23;;
26864;SDS011;40618;51.166;10.322;2022-11-20T08:01:40;19.67;;;8.73;;
26864;SDS011;40618;51.166;10.322;2022-11-20T08:04:08;21.90;;;9.45;;
26864;SDS011;40618;51.166;10.322;2022-11-20T08:06:34;20.77;;;9.32;;
26864;SDS011;40618;51.166;10.322;2022-11-20T08:09:01;19.17;;;9.30;;
26864;SDS011;40618;51.166;10.322;2022-11-20T08:11:27;19.90;;;9.48;;
26864;SDS011;40618;51.166;10.322;2022-11-20T08:14:11;22.95;;;9.90;;
26864;SDS011;40618;51.166;10.322;2022-11-20T08:16:37;25.95;;;10.98;;
26864;SDS011;40618;51.166;10.322;2022-11-20T08:19:04;28.20;;;14.50;;
26864;SDS011;40618;51.166;10.322;2022-11-20T08:21:30;36.00;;;15.93;;
26864;SDS011;40618;51.166;10.322;2022-11-20T08:23:57;35.20;;;17.42;;
26864;SDS011;40618;51.166;10.322;2022-11-20T08:26:23;28.42;;;15.68;;
26864;SDS011;40618;51.166;10.322;2022-11-20T08:28:52;28.20;;;13.35;;
26864;SDS011;40618;51.166;10.322;2022-11-20T08:31:20;30.70;;;13.70;;
26864;SDS011;40618;51.166;10.322;2022-11-20T08:33:46;30.27;;;13.30;;
26864;SDS011;40618;51.166;10.322;2022-11-20T08:36:12;33.95;;;12.88;;
26864;SDS011;40618;51.166;10.322;2022-11-20T08:38:38;25.58;;;12.95;;
26864;SDS011;40618;51.166;10.322;2022-11-20T08:41:04;30.25;;;14.27;;
26864;SDS011;40618;51.166;10.322;2022-11-20T08:43:50;29.08;;;11.68;;
26864;SDS011;40618;51.166;10.322;2022-11-20T08:46:19;29.45;;;11.70;;
26864;SDS011;40618;51.166;10.322;2022-11-20T08:48:45;26.75;;;12.20;;
26864;SDS011;40618;51.166;10.322;2022-11-20T08:51:11;25.48;;;12.38;;
26864;SDS011;40618;51.166;10.322;2022-11-20T08:53:38;28.42;;;12.95;;
26864;SDS011;40618;51.166;10.322;2022-11-20T08:56:04;27.02;;;12.27;;
26864;SDS011;40618;51.166;10.322;2022-11-20T08:58:31;26.52;;;11.82;;
26864;SDS011;40618;51.166;10.322;2022-11-20T09:00:56;26.52;;;12.63;;
26864;SDS011;40618;51.166;10.322;2022-11-20T09:03:22;26.42;;;12.23;;
26864;SDS011;40618;51.166;10.322;2022-11-20T09:05:48;27.50;;;13.07;;
26864;SDS011;40618;51.166;10.322;2022-11-20T09:08:13;18.65;;;9.90;;
26864;SDS011;40618;51.166;10.322;2022-11-20T09:10:39;18.35;;;9.40;;
26864;SDS011;40618;51.166;10.322;2022-11-20T09:13:05;18.45;;;9.85;;
26864;SDS011;40618;51.166;10.322;2022-11-20T09:15:30;19.30;;;9.45;;
26864;SDS011;40618;51.166;10.322;2022-11-20T09:17:58;18.52;;;9.43;;
26864;SDS011;40618;51.166;10.322;2022-11-20T09:20:27;18.45;;;9.05;;
26864;SDS011;40618;51.166;10.322;2022-11-20T09:22:55;20.80;;;9.20;;
26864;SDS011;40618;51.166;10.322;2022-11-20T09:25:21;19.60;;;8.95;;
26864;SDS011;40618;51.166;10.322;2022-11-20T09:27:47;17.73;;;8.60;;
26864;SDS011;40618;51.166;10.322;2022-11-20T09:30:13;19.15;;;8.82;;
26864;SDS011;40618;51.166;10.322;2022-11-20T09:32:40;16.58;;;8.63;;
26864;SDS011;40618;51.166;10.322;2022-11-20T09:35:07;16.95;;;8.68;;
26864;SDS011;40618;51.166;10.322;2022-11-20T09:37:33;16.85;;;8.90;;
26864;SDS011;40618;51.166;10.322;2022-11-20T09:39:59;23.98;;;10.68;;
26864;SDS011;40618;51.166;10.322;2022-11-20T09:45:16;23.38;;;11.48;;
26864;SDS011;40618;51.166;10.322;2022-11-20T09:50:54;20.10;;;9.93;;
26864;SDS011;40618;51.166;10.322;2022-11-20T09:56:33;18.48;;;8.93;;
26864;SDS011;40618;51.166;10.322;2022-11-20T09:59:06;23.45;;;11.45;;
26864;SDS011;40618;51.166;10.322;2022-11-20T10:01:45;28.65;;;11.88;;
26864;SDS011;40618;51.166;10.322;2022-11-20T10:04:17;20.88;;;10.30;;
26864;SDS011;40618;51.166;10.322;2022-11-20T10:06:51;27.60;;;12.52;;
26864;SDS011;40618;51.166;10.322;2022-11-20T10:09:53;24.88;;;12.07;;
26864;SDS011;40618;51.166;10.322;2022-11-20T10:15:34;20.10;;;10.65;;
26864;SDS011;40618;51.166;10.322;2022-11-20T10:20:58;22.70;;;9.90;;
26864;SDS011;40618;51.166;10.322;2022-11-20T10:26:28;16.00;;;7.30;;
26864;SDS011;40618;51.166;10.322;2022-11-20T10:29:12;15.77;;;7.82;;
26864;SDS011;40618;51.166;10.322;2022-11-20T10:31:52;15.52;;;7.88;;
26864;SDS011;40618;51.166;10.322;2022-11-20T10:37:26;24.88;;;11.20;;
26864;SDS011;40618;51.166;10.322;2022-11-20T10:42:49;20.70;;;10.48;;
26864;SDS011;40618;51.166;10.322;2022-11-20T10:47:54;16.75;;;8.75;;
26864;SDS011;40618;51.166;10.322;2022-11-20T10:50:53;15.38;;;8.07;;
26864;SDS011;40618;51.166;10.322;2022-11-20T10:56:42;23.10;;;10.82;;
26864;SDS011;40618;51.166;10.322;2022-11-20T11:01:58;24.63;;;11.93;;
26864;SDS011;40618;51.166;10.322;2022-11-20T11:04:32;21.25;;;10.95;;
26864;SDS011;40618;51.166;10.322;2022-11-20T11:07:09;24.20;;;11.10;;
26864;SDS011;40618;51.166;10.322;2022-11-20T11:10:14;21.08;;;10.60;;
26864;SDS011;40618;51.166;10.322;2022-11-20T11:12:46;23.77;;;10.93;;
26864;SDS011;40618;51.166;10.322;2022-11-20T11:15:58;22.45;;;10.38;;
26864;SDS011;40618;51.166;10.322;2022-11-20T11:18:09;18.20;;;8.85;;
26864;SDS011;40618;51.166;10.322;2022-11-20T11:23:02;16.77;;;8.38;;
26864;SDS011;40618;51.166;10.322;2022-11-20T11:25:31;18.35;;;8.43;;
26864;SDS011;40618;51.166;10.322;2022-11-20T11:28:00;18.85;;;8.57;;
26864;SDS011;40618;51.166;10.322;2022-11-20T11:30:49;20.52;;;9.13;;
26864;SDS011;40618;51.166;10.322;2022-11-20T11:33:25;23.23;;;9.90;;
26864;SDS011;40618;51.166;10.322;2022-11-20T11:35:55;29.58;;;10.32;;
26864;SDS011;40618;51.166;10.322;2022-11-20T11:41:00;19.67;;;9.70;;
26864;SDS011;40618;51.166;10.322;2022-11-20T11:43:32;17.60;;;9.25;;
26864;SDS011;40618;51.166;10.322;2022-11-20T11:57:20;20.42;;;9.20;;
26864;SDS011;40618;51.166;10.322;2022-11-20T12:02:35;15.35;;;8.55;;
26864;SDS011;40618;51.166;10.322;2022-11-20T12:08:10;19.00;;;8.77;;
26864;SDS011;40618;51.166;10.322;2022-11-20T12:11:54;20.20;;;10.55;;
26864;SDS011;40618;51.166;10.322;2022-11-20T12:14:41;18.63;;;9.05;;
26864;SDS011;40618;51.166;10.322;2022-11-20T12:17:10;22.63;;;10.05;;
26864;SDS011;40618;51.166;10.322;2022-11-20T12:19:38;22.20;;;10.82;;
26864;SDS011;40618;51.166;10.322;2022-11-20T12:25:13;25.52;;;11.75;;
26864;SDS011;40618;51.166;10.322;2022-11-20T12:34:05;16.90;;;8.73;;
26864;SDS011;40618;51.166;10.322;2022-11-20T12:36:54;19.60;;;9.70;;
26864;SDS011;40618;51.166;10.322;2022-11-20T12:39:40;22.38;;;10.88;;
26864;SDS011;40618;51.166;10.322;2022-11-20T13:00:06;18.13;;;8.65;;
26864;SDS011;40618;51.166;10.322;2022-11-20T13:08:32;17.50;;;8.30;;
26864;SDS011;40618;51.166;10.322;2022-11-20T13:11:18;16.80;;;8.88;;
26864;SDS011;40618;51.166;10.322;2022-11-20T13:14:13;16.05;;;8.55;;
26864;SDS011;40618;51.166;10.322;2022-11-20T13:20:03;16.83;;;8.98;;
26864;SDS011;40618;51.166;10.322;2022-11-20T13:22:47;17.98;;;9.02;;
26864;SDS011;40618;51.166;10.322;2022-11-20T13:25:26;16.77;;;8.20;;
26864;SDS011;40618;51.166;10.322;2022-11-20T13:27:56;15.50;;;7.88;;
26864;SDS011;40618;51.166;10.322;2022-11-20T13:30:54;16.75;;;8.52;;
26864;SDS011;40618;51.166;10.322;2022-11-20T13:33:31;14.52;;;7.93;;
26864;SDS011;40618;51.166;10.322;2022-11-20T13:36:02;17.38;;;9.07;;
26864;SDS011;40618;51.166;10.322;2022-11-20T13:38:51;25.00;;;12.65;;
26864;SDS011;40618;51.166;10.322;2022-11-20T13:41:23;19.08;;;9.30;;
26864;SDS011;40618;51.166;10.322;2022-11-20T13:46:44;18.10;;;9.80;;
26864;SDS011;40618;51.166;10.322;2022-11-20T13:49:20;20.55;;;10.73;;
26864;SDS011;40618;51.166;10.322;2022-11-20T13:55:35;19.15;;;9.38;;
26864;SDS011;40618;51.166;10.322;2022-11-20T14:01:23;22.08;;;11.52;;
26864;SDS011;40618;51.166;10.322;2022-11-20T14:03:51;23.13;;;12.20;;
26864;SDS011;40618;51.166;10.322;2022-11-20T14:06:28;27.15;;;13.90;;
26864;SDS011;40618;51.166;10.322;2022-11-20T14:09:03;31.85;;;14.40;;
26864;SDS011;40618;51.166;10.322;2022-11-20T14:11:29;28.77;;;12.68;;
26864;SDS011;40618;51.166;10.322;2022-11-20T14:16:28;24.50;;;11.95;;
26864;SDS011;40618;51.166;10.322;2022-11-20T14:19:08;27.25;;;12.88;;
26864;SDS011;40618;51.166;10.322;2022-11-20T14:21:52;26.85;;;13.73;;
26864;SDS011;40618;51.166;10.322;2022-11-20T14:24:43;25.95;;;12.93;;
26864;SDS011;40618;51.166;10.322;2022-11-20T14:27:20;23.20;;;10.80;;
26864;SDS011;40618;51.166;10.322;2022-11-20T14:29:47;26.38;;;12.70;;
26864;SDS011;40618;51.166;10.322;2022-11-20T14:32:16;33.17;;;14.15;;
26864;SDS011;40618;51.166;10.322;2022-11-20T14:34:45;37.47;;;19.40;;
26864;SDS011;40618;51.166;10.322;2022-11-20T14:37:19;40.15;;;20.05;;
26864;SDS011;40618;51.166;10.322;2022-11-20T14:39:50;49.55;;;24.27;;
26864;SDS011;40618;51.166;10.322;2022-11-20T14:42:20;62.00;;;29.60;;
26864;SDS011;40618;51.166;10.322;2022-11-20T14:44:51;48.10;;;25.50;;
26864;SDS011;40618;51.166;10.322;2022-11-20T14:47:22;53.67;;;27.35;;
26864;SDS011;40618;51.166;10.322;2022-11-20T14:49:51;36.25;;;17.92;;
26864;SDS011;40618;51.166;10.322;2022-11-20T14:52:20;36.05;;;18.33;;
26864;SDS011;40618;51.166;10.322;2022-11-20T14:54:50;40.53;;;20.33;;
26864;SDS011;40618;51.166;10.322;2022-11-20T14:57:27;32.40;;;16.63;;
26864;SDS011;40618;51.166;10.322;2022-11-20T15:00:05;36.45;;;18.65;;
26864;SDS011;40618;51.166;10.322;2022-11-20T15:02:46;35.35;;;16.67;;
26864;SDS011;40618;51.166;10.322;2022-11-20T15:05:15;30.95;;;15.75;;
26864;SDS011;40618;51.166;10.322;2022-11-20T15:07:45;31.70;;;17.63;;
26864;SDS011;40618;51.166;10.322;2022-11-20T15:12:55;30.58;;;15.38;;
26864;SDS011;40618;51.166;10.322;2022-11-20T15:17:57;32.75;;;15.60;;
26864;SDS011;40618;51.166;10.322;2022-11-20T15:20:24;31.95;;;15.65;;
26864;SDS011;40618;51.166;10.322;2022-11-20T15:22:54;44.55;;;19.38;;
26864;SDS011;40618;51.166;10.322;2022-11-20T15:25:20;39.53;;;18.88;;
26864;SDS011;40618;51.166;10.322;2022-11-20T15:27:45;42.08;;;20.10;;
26864;SDS011;40618;51.166;10.322;2022-11-20T15:30:18;47.25;;;21.80;;
26864;SDS011;40618;51.166;10.322;2022-11-20T15:32:46;45.03;;;22.00;;
26864;SDS011;40618;51.166;10.322;2022-11-20T15:35:13;47.13;;;19.73;;
26864;SDS011;40618;51.166;10.322;2022-11-20T15:37:40;43.33;;;21.20;;
26864;SDS011;40618;51.166;10.322;2022-11-20T15:40:07;38.13;;;18.48;;
26864;SDS011;40618;51.166;10.322;2022-11-20T15:42:34;41.80;;;18.77;;
26864;SDS011;40618;51.166;10.322;2022-11-20T15:45:00;36.10;;;17.35;;
26864;SDS011;40618;51.166;10.322;2022-11-20T15:47:27;35.97;;;17.23;;
26864;SDS011;40618;51.166;10.322;2022-11-20T15:49:59;38.95;;;18.52;;
26864;SDS011;40618;51.166;10.322;2022-11-20T15:52:25;30.98;;;16.33;;
26864;SDS011;40618;51.166;10.322;2022-11-20T15:54:51;31.80;;;15.35;;
26864;SDS011;40618;51.166;10.322;2022-11-20T15:57:17;34.40;;;17.40;;
26864;SDS011;40618;51.166;10.322;2022-11-20T15:59:43;30.48;;;15.82;;
26864;SDS011;40618;51.166;10.322;2022-11-20T16:02:09;32.22;;;15.27;;
26864;SDS011;40618;51.166;10.322;2022-11-20T16:04:37;36.08;;;16.38;;
26864;SDS011;40618;51.166;10.322;2022-11-20T16:07:03;34.17;;;16.35;;
26864;SDS011;40618;51.166;10.322;2022-11-20T16:09:29;39.97;;;18.70;;
26864;SDS011;40618;51.166;10.322;2022-11-20T16:11:55;34.53;;;17.20;;
26864;SDS011;40618;51.166;10.322;2022-11-20T16:14:23;41.70;;;18.48;;
26864;SDS011;40618;51.166;10.322;2022-11-20T16:17:07;38.13;;;18.30;;
26864;SDS011;40618;51.166;10.322;2022-11-20T16:19:32;40.45;;;19.33;;
26864;SDS011;40618;51.166;10.322;2022-11-20T16:21:58;38.08;;;18.77;;
26864;SDS011;40618;51.166;10.322;2022-11-20T16:24:26;37.95;;;17.67;;
26864;SDS011;40618;51.166;10.322;2022-11-20T16:26:52;38.53;;;18.05;;
26864;SDS011;40618;51.166;10.322;2022-11-20T16:29:19;32.60;;;15.95;;
26864;SDS011;40618;51.166;10.322;2022-11-20T16:31:44;36.47;;;16.23;;
26864;SDS011;40618;51.166;10.322;2022-11-20T16:34:10;30.27;;;14.68;;
26864;SDS011;40618;51.166;10.322;2022-11-20T16:36:36;32.10;;;14.52;;